sensor_id;sensor_type;location;lat;lon;timestamp;pressure;altitude;pressure_sealevel;temperature;humidity
67842;BME280;54642;59.126;37.876;2023-10-09T00:00:08;97592.31;;;3.92;79.70
67842;BME280;54642;59.126;37.876;2023-10-09T00:02:53;97583.13;;;3.80;79.90
67842;BME280;54642;59.126;37.876;2023-10-09T00:05:19;97588.25;;;3.80;79.80
67842;BME280;54642;59.126;37.876;2023-10-09T00:07:53;97581.50;;;3.74;79.57
67842;BME280;54642;59.126;37.876;2023-10-09T00:10:23;97590.81;;;3.78;79.75
67842;BME280;54642;59.126;37.876;2023-10-09T00:13:00;97614.59;;;3.87;79.65
67842;BME280;54642;59.126;37.876;2023-10-09T00:15:26;97617.25;;;3.82;79.80
67842;BME280;54642;59.126;37.876;2023-10-09T00:17:53;97590.13;;;3.70;79.74
67842;BME280;54642;59.126;37.876;2023-10-09T00:20:21;97598.69;;;3.69;79.66
67842;BME280;54642;59.126;37.876;2023-10-09T00:22:51;97619.81;;;3.80;79.75
67842;BME280;54642;59.126;37.876;2023-10-09T00:25:17;97615.59;;;3.78;79.85
67842;BME280;54642;59.126;37.876;2023-10-09T00:27:55;97631.81;;;3.78;79.92
67842;BME280;54642;59.126;37.876;2023-10-09T00:30:21;97609.84;;;3.65;79.88
67842;BME280;54642;59.126;37.876;2023-10-09T00:32:47;97642.91;;;3.79;79.59
67842;BME280;54642;59.126;37.876;2023-10-09T00:35:29;97612.44;;;3.63;79.85
67842;BME280;54642;59.126;37.876;2023-10-09T00:38:10;97641.28;;;3.75;79.92
67842;BME280;54642;59.126;37.876;2023-10-09T00:40:49;97603.97;;;3.58;79.84
67842;BME280;54642;59.126;37.876;2023-10-09T00:43:33;97631.03;;;3.75;79.79
67842;BME280;54642;59.126;37.876;2023-10-09T00:46:02;97637.88;;;3.73;79.67
67842;BME280;54642;59.126;37.876;2023-10-09T00:48:29;97618.41;;;3.62;79.75
67842;BME280;54642;59.126;37.876;2023-10-09T00:51:04;97644.72;;;3.74;79.70
67842;BME280;54642;59.126;37.876;2023-10-09T00:53:58;97654.00;;;3.79;79.63
67842;BME280;54642;59.126;37.876;2023-10-09T00:56:33;97641.41;;;3.66;79.63
67842;BME280;54642;59.126;37.876;2023-10-09T00:59:10;97640.63;;;3.62;79.76
67842;BME280;54642;59.126;37.876;2023-10-09T01:01:46;97656.66;;;3.73;79.66
67842;BME280;54642;59.126;37.876;2023-10-09T01:04:29;97655.78;;;3.76;79.80
67842;BME280;54642;59.126;37.876;2023-10-09T01:07:04;97669.38;;;3.79;79.50
67842;BME280;54642;59.126;37.876;2023-10-09T01:09:36;97642.34;;;3.61;79.66
67842;BME280;54642;59.126;37.876;2023-10-09T01:12:09;97667.69;;;3.77;79.56
67842;BME280;54642;59.126;37.876;2023-10-09T01:14:43;97669.44;;;3.76;79.53
67842;BME280;54642;59.126;37.876;2023-10-09T01:17:09;97686.44;;;3.80;79.64
67842;BME280;54642;59.126;37.876;2023-10-09T01:19:36;97682.19;;;3.79;79.62
67842;BME280;54642;59.126;37.876;2023-10-09T01:22:02;97655.06;;;3.66;79.42
67842;BME280;54642;59.126;37.876;2023-10-09T01:24:48;97689.06;;;3.77;79.38
67842;BME280;54642;59.126;37.876;2023-10-09T01:27:16;97665.31;;;3.65;79.36
67842;BME280;54642;59.126;37.876;2023-10-09T01:29:43;97691.56;;;3.80;79.67
67842;BME280;54642;59.126;37.876;2023-10-09T01:32:11;97685.69;;;3.74;79.49
67842;BME280;54642;59.126;37.876;2023-10-09T01:34:45;97687.34;;;3.76;79.43
67842;BME280;54642;59.126;37.876;2023-10-09T01:37:16;97696.75;;;3.77;79.58
67842;BME280;54642;59.126;37.876;2023-10-09T01:39:46;97698.47;;;3.75;79.63
67842;BME280;54642;59.126;37.876;2023-10-09T01:42:15;97695.88;;;3.77;79.74
67842;BME280;54642;59.126;37.876;2023-10-09T01:44:50;97678.13;;;3.66;79.66
67842;BME280;54642;59.126;37.876;2023-10-09T01:47:17;97675.56;;;3.65;79.47
67842;BME280;54642;59.126;37.876;2023-10-09T01:49:47;97696.78;;;3.74;79.45
67842;BME280;54642;59.126;37.876;2023-10-09T01:52:19;97695.16;;;3.70;79.35
67842;BME280;54642;59.126;37.876;2023-10-09T01:54:47;97704.53;;;3.68;79.79
67842;BME280;54642;59.126;37.876;2023-10-09T01:57:16;97706.28;;;3.68;79.79
67842;BME280;54642;59.126;37.876;2023-10-09T01:59:48;97691.03;;;3.58;79.79
67842;BME280;54642;59.126;37.876;2023-10-09T02:02:19;97718.16;;;3.72;79.84
67842;BME280;54642;59.126;37.876;2023-10-09T02:05:01;97698.69;;;3.61;79.95
67842;BME280;54642;59.126;37.876;2023-10-09T02:07:33;97695.22;;;3.66;80.08
67842;BME280;54642;59.126;37.876;2023-10-09T02:10:23;97704.53;;;3.68;80.04
67842;BME280;54642;59.126;37.876;2023-10-09T02:12:59;97724.06;;;3.75;80.09
67842;BME280;54642;59.126;37.876;2023-10-09T02:15:30;97681.81;;;3.47;79.91
67842;BME280;54642;59.126;37.876;2023-10-09T02:18:10;97736.94;;;3.74;79.96
67842;BME280;54642;59.126;37.876;2023-10-09T02:23:38;97714.00;;;3.63;80.18
67842;BME280;54642;59.126;37.876;2023-10-09T02:26:09;97719.06;;;3.69;80.02
67842;BME280;54642;59.126;37.876;2023-10-09T02:28:36;97732.63;;;3.76;80.00
67842;BME280;54642;59.126;37.876;2023-10-09T02:31:12;97698.72;;;3.60;80.30
67842;BME280;54642;59.126;37.876;2023-10-09T02:33:38;97713.09;;;3.69;80.19
67842;BME280;54642;59.126;37.876;2023-10-09T02:36:08;97740.19;;;3.84;80.19
67842;BME280;54642;59.126;37.876;2023-10-09T02:38:34;97731.72;;;3.78;80.30
67842;BME280;54642;59.126;37.876;2023-10-09T02:41:07;97724.16;;;3.72;80.32
67842;BME280;54642;59.126;37.876;2023-10-09T02:43:39;97727.53;;;3.73;80.12
67842;BME280;54642;59.126;37.876;2023-10-09T02:46:16;97741.00;;;3.86;80.26
67842;BME280;54642;59.126;37.876;2023-10-09T02:48:47;97740.22;;;3.82;80.27
67842;BME280;54642;59.126;37.876;2023-10-09T02:51:20;97751.28;;;3.82;80.32
67842;BME280;54642;59.126;37.876;2023-10-09T02:54:09;97745.38;;;3.79;80.23
67842;BME280;54642;59.126;37.876;2023-10-09T02:56:48;97741.13;;;3.78;80.36
67842;BME280;54642;59.126;37.876;2023-10-09T02:59:22;97733.56;;;3.70;80.52
67842;BME280;54642;59.126;37.876;2023-10-09T03:01:49;97753.13;;;3.76;80.57
67842;BME280;54642;59.126;37.876;2023-10-09T03:04:18;97736.94;;;3.74;80.55
67842;BME280;54642;59.126;37.876;2023-10-09T03:06:45;97776.03;;;3.85;80.55
67842;BME280;54642;59.126;37.876;2023-10-09T03:09:17;97736.88;;;3.75;80.64
67842;BME280;54642;59.126;37.876;2023-10-09T03:11:47;97753.13;;;3.76;80.46
67842;BME280;54642;59.126;37.876;2023-10-09T03:14:19;97748.97;;;3.69;80.63
67842;BME280;54642;59.126;37.876;2023-10-09T03:16:48;97773.59;;;3.77;80.67
67842;BME280;54642;59.126;37.876;2023-10-09T03:19:14;97750.66;;;3.68;80.54
67842;BME280;54642;59.126;37.876;2023-10-09T03:21:40;97785.53;;;3.78;80.47
67842;BME280;54642;59.126;37.876;2023-10-09T03:24:07;97783.84;;;3.77;80.76
67842;BME280;54642;59.126;37.876;2023-10-09T03:26:34;97781.28;;;3.77;80.80
67842;BME280;54642;59.126;37.876;2023-10-09T03:29:00;97760.91;;;3.67;80.59
67842;BME280;54642;59.126;37.876;2023-10-09T03:31:32;97763.47;;;3.68;80.61
67842;BME280;54642;59.126;37.876;2023-10-09T03:33:59;97774.44;;;3.78;80.60
67842;BME280;54642;59.126;37.876;2023-10-09T03:36:25;97743.22;;;3.51;80.61
67842;BME280;54642;59.126;37.876;2023-10-09T03:38:55;97777.06;;;3.72;80.52
67842;BME280;54642;59.126;37.876;2023-10-09T03:41:24;97764.41;;;3.62;80.91
67842;BME280;54642;59.126;37.876;2023-10-09T03:43:53;97778.81;;;3.68;80.58
67842;BME280;54642;59.126;37.876;2023-10-09T03:46:21;97791.59;;;3.73;80.74
67842;BME280;54642;59.126;37.876;2023-10-09T03:48:52;97784.72;;;3.75;80.78
67842;BME280;54642;59.126;37.876;2023-10-09T03:51:21;97789.88;;;3.72;80.71
67842;BME280;54642;59.126;37.876;2023-10-09T03:53:48;97794.94;;;3.76;80.72
67842;BME280;54642;59.126;37.876;2023-10-09T03:56:14;97790.75;;;3.72;80.87
67842;BME280;54642;59.126;37.876;2023-10-09T03:58:50;97787.28;;;3.73;80.74
67842;BME280;54642;59.126;37.876;2023-10-09T04:01:19;97780.56;;;3.66;80.80
67842;BME280;54642;59.126;37.876;2023-10-09T04:03:53;97781.47;;;3.62;80.73
67842;BME280;54642;59.126;37.876;2023-10-09T04:06:26;97811.16;;;3.75;80.62
67842;BME280;54642;59.126;37.876;2023-10-09T04:09:01;97817.19;;;3.73;80.73
67842;BME280;54642;59.126;37.876;2023-10-09T04:11:53;97792.66;;;3.58;80.75
67842;BME280;54642;59.126;37.876;2023-10-09T04:14:37;97790.94;;;3.57;80.68
67842;BME280;54642;59.126;37.876;2023-10-09T04:17:15;97829.16;;;3.74;80.66
67842;BME280;54642;59.126;37.876;2023-10-09T04:19:47;97827.41;;;3.76;80.56
67842;BME280;54642;59.126;37.876;2023-10-09T04:22:31;97825.78;;;3.70;80.56
67842;BME280;54642;59.126;37.876;2023-10-09T04:25:07;97837.69;;;3.73;80.76
67842;BME280;54642;59.126;37.876;2023-10-09T04:27:43;97834.31;;;3.71;80.76
67842;BME280;54642;59.126;37.876;2023-10-09T04:30:10;97853.91;;;3.73;80.39
67842;BME280;54642;59.126;37.876;2023-10-09T04:32:41;97847.09;;;3.72;80.52
67842;BME280;54642;59.126;37.876;2023-10-09T04:35:11;97847.09;;;3.72;80.40
67842;BME280;54642;59.126;37.876;2023-10-09T04:37:48;97839.47;;;3.66;80.40
67842;BME280;54642;59.126;37.876;2023-10-09T04:40:31;97856.41;;;3.78;80.56
67842;BME280;54642;59.126;37.876;2023-10-09T04:43:07;97861.47;;;3.82;80.44
67842;BME280;54642;59.126;37.876;2023-10-09T04:45:38;97854.66;;;3.81;80.39
67842;BME280;54642;59.126;37.876;2023-10-09T04:48:42;97864.09;;;3.79;80.34
67842;BME280;54642;59.126;37.876;2023-10-09T04:51:11;97851.34;;;3.72;80.33
67842;BME280;54642;59.126;37.876;2023-10-09T04:53:49;97875.13;;;3.83;80.47
67842;BME280;54642;59.126;37.876;2023-10-09T04:56:35;97862.38;;;3.78;80.57
67842;BME280;54642;59.126;37.876;2023-10-09T04:59:18;97876.81;;;3.82;80.43
67842;BME280;54642;59.126;37.876;2023-10-09T05:01:44;97871.69;;;3.82;80.38
67842;BME280;54642;59.126;37.876;2023-10-09T05:04:24;97856.53;;;3.69;80.05
67842;BME280;54642;59.126;37.876;2023-10-09T05:07:07;97871.88;;;3.70;80.20
67842;BME280;54642;59.126;37.876;2023-10-09T05:09:51;97872.59;;;3.81;80.09
67842;BME280;54642;59.126;37.876;2023-10-09T05:12:40;97869.22;;;3.78;80.13
67842;BME280;54642;59.126;37.876;2023-10-09T05:15:12;97891.22;;;3.93;80.11
67842;BME280;54642;59.126;37.876;2023-10-09T05:17:39;97892.94;;;3.94;80.00
67842;BME280;54642;59.126;37.876;2023-10-09T05:20:06;97894.63;;;3.93;79.79
67842;BME280;54642;59.126;37.876;2023-10-09T05:22:50;97886.13;;;3.90;79.90
67842;BME280;54642;59.126;37.876;2023-10-09T05:25:26;97895.50;;;3.92;79.82
67842;BME280;54642;59.126;37.876;2023-10-09T05:28:11;97886.22;;;3.84;79.81
67842;BME280;54642;59.126;37.876;2023-10-09T05:30:55;97852.34;;;3.61;79.92
67842;BME280;54642;59.126;37.876;2023-10-09T05:33:41;97915.91;;;4.00;79.73
67842;BME280;54642;59.126;37.876;2023-10-09T05:36:10;97907.38;;;3.99;79.76
67842;BME280;54642;59.126;37.876;2023-10-09T05:38:51;97906.63;;;3.90;79.54
67842;BME280;54642;59.126;37.876;2023-10-09T05:41:35;97897.25;;;3.89;79.44
67842;BME280;54642;59.126;37.876;2023-10-09T05:44:16;97901.50;;;3.90;79.23
67842;BME280;54642;59.126;37.876;2023-10-09T05:47:01;97930.44;;;4.01;79.14
67842;BME280;54642;59.126;37.876;2023-10-09T05:49:45;97924.38;;;4.05;78.99
67842;BME280;54642;59.126;37.876;2023-10-09T05:52:31;97934.66;;;4.02;78.91
67842;BME280;54642;59.126;37.876;2023-10-09T05:55:04;97952.56;;;4.07;78.89
67842;BME280;54642;59.126;37.876;2023-10-09T05:57:45;97937.97;;;4.12;78.62
67842;BME280;54642;59.126;37.876;2023-10-09T06:00:30;97934.50;;;4.14;78.25
67842;BME280;54642;59.126;37.876;2023-10-09T06:03:14;97961.59;;;4.35;78.03
67842;BME280;54642;59.126;37.876;2023-10-09T06:05:52;97964.91;;;4.42;77.74
67842;BME280;54642;59.126;37.876;2023-10-09T06:08:31;97941.19;;;4.26;77.94
67842;BME280;54642;59.126;37.876;2023-10-09T06:11:07;97952.38;;;4.20;78.03
67842;BME280;54642;59.126;37.876;2023-10-09T06:14:00;97952.38;;;4.20;78.22
67842;BME280;54642;59.126;37.876;2023-10-09T06:16:32;97962.59;;;4.24;77.89
67842;BME280;54642;59.126;37.876;2023-10-09T06:19:08;97981.25;;;4.35;77.85
67842;BME280;54642;59.126;37.876;2023-10-09T06:21:41;97984.63;;;4.37;77.16
67842;BME280;54642;59.126;37.876;2023-10-09T06:24:08;97989.75;;;4.38;77.12
67842;BME280;54642;59.126;37.876;2023-10-09T06:26:39;97982.28;;;4.20;77.13
67842;BME280;54642;59.126;37.876;2023-10-09T06:29:19;98004.47;;;4.26;76.83
67842;BME280;54642;59.126;37.876;2023-10-09T06:32:07;98009.59;;;4.26;77.04
67842;BME280;54642;59.126;37.876;2023-10-09T06:34:48;98018.94;;;4.30;77.18
67842;BME280;54642;59.126;37.876;2023-10-09T06:37:40;98007.06;;;4.23;77.13
67842;BME280;54642;59.126;37.876;2023-10-09T06:40:26;98027.53;;;4.26;77.06
67842;BME280;54642;59.126;37.876;2023-10-09T06:43:10;98028.41;;;4.23;76.46
67842;BME280;54642;59.126;37.876;2023-10-09T06:45:45;98020.75;;;4.18;75.86
67842;BME280;54642;59.126;37.876;2023-10-09T06:48:12;97994.47;;;4.03;75.64
67842;BME280;54642;59.126;37.876;2023-10-09T06:51:02;98044.72;;;4.17;75.33
67842;BME280;54642;59.126;37.876;2023-10-09T06:53:47;98009.00;;;4.02;75.45
67842;BME280;54642;59.126;37.876;2023-10-09T06:59:05;98037.72;;;4.95;74.90
67842;BME280;54642;59.126;37.876;2023-10-09T07:01:41;98024.44;;;5.23;74.49
67842;BME280;54642;59.126;37.876;2023-10-09T07:04:13;98035.78;;;5.61;74.59
67842;BME280;54642;59.126;37.876;2023-10-09T07:06:48;98008.38;;;5.62;73.73
67842;BME280;54642;59.126;37.876;2023-10-09T07:09:17;98021.22;;;5.62;73.24
67842;BME280;54642;59.126;37.876;2023-10-09T07:11:48;98048.53;;;5.67;72.86
67842;BME280;54642;59.126;37.876;2023-10-09T07:14:18;98044.84;;;5.81;72.76
67842;BME280;54642;59.126;37.876;2023-10-09T07:17:03;98059.06;;;6.03;72.39
67842;BME280;54642;59.126;37.876;2023-10-09T07:19:42;98028.00;;;6.13;72.35
67842;BME280;54642;59.126;37.876;2023-10-09T07:22:11;98029.81;;;6.07;71.21
67842;BME280;54642;59.126;37.876;2023-10-09T07:24:50;98058.47;;;6.33;71.28
67842;BME280;54642;59.126;37.876;2023-10-09T07:27:27;98046.81;;;6.15;70.62
67842;BME280;54642;59.126;37.876;2023-10-09T07:30:13;98055.81;;;5.92;70.06
67842;BME280;54642;59.126;37.876;2023-10-09T07:32:56;98039.25;;;5.59;70.66
67842;BME280;54642;59.126;37.876;2023-10-09T07:35:31;98067.53;;;5.59;71.06
67842;BME280;54642;59.126;37.876;2023-10-09T07:38:18;98071.38;;;5.33;70.93
67842;BME280;54642;59.126;37.876;2023-10-09T07:40:55;98059.72;;;5.10;71.27
67842;BME280;54642;59.126;37.876;2023-10-09T07:43:30;98080.91;;;5.23;71.58
67842;BME280;54642;59.126;37.876;2023-10-09T07:46:09;98076.19;;;5.51;71.13
67842;BME280;54642;59.126;37.876;2023-10-09T07:48:55;98028.53;;;5.35;70.93
67842;BME280;54642;59.126;37.876;2023-10-09T07:51:23;98086.94;;;5.75;70.71
67842;BME280;54642;59.126;37.876;2023-10-09T07:53:50;98092.13;;;5.70;70.88
67842;BME280;54642;59.126;37.876;2023-10-09T07:56:25;98082.94;;;5.59;71.09
67842;BME280;54642;59.126;37.876;2023-10-09T07:58:58;98058.63;;;5.25;71.40
67842;BME280;54642;59.126;37.876;2023-10-09T08:01:26;98097.94;;;5.29;71.75
67842;BME280;54642;59.126;37.876;2023-10-09T08:03:54;98098.03;;;5.24;72.25
67842;BME280;54642;59.126;37.876;2023-10-09T08:06:24;98093.13;;;5.09;72.48
67842;BME280;54642;59.126;37.876;2023-10-09T08:09:11;98079.34;;;5.14;72.73
67842;BME280;54642;59.126;37.876;2023-10-09T08:11:41;98081.84;;;5.19;72.80
67842;BME280;54642;59.126;37.876;2023-10-09T08:14:14;98099.66;;;5.31;72.75
67842;BME280;54642;59.126;37.876;2023-10-09T08:16:59;98089.19;;;5.44;72.51
67842;BME280;54642;59.126;37.876;2023-10-09T08:19:47;98113.50;;;5.74;72.51
67842;BME280;54642;59.126;37.876;2023-10-09T08:22:30;98110.69;;;5.89;71.85
67842;BME280;54642;59.126;37.876;2023-10-09T08:24:57;98118.38;;;5.89;71.87
67842;BME280;54642;59.126;37.876;2023-10-09T08:27:26;98118.56;;;5.79;72.30
67842;BME280;54642;59.126;37.876;2023-10-09T08:29:59;98126.44;;;5.69;72.51
67842;BME280;54642;59.126;37.876;2023-10-09T08:32:50;98123.16;;;5.60;72.70
67842;BME280;54642;59.126;37.876;2023-10-09T08:35:29;98090.38;;;5.21;72.51
67842;BME280;54642;59.126;37.876;2023-10-09T08:37:56;98146.75;;;5.29;72.92
67842;BME280;54642;59.126;37.876;2023-10-09T08:40:42;98143.53;;;5.14;73.27
67842;BME280;54642;59.126;37.876;2023-10-09T08:43:15;98155.50;;;5.15;73.43
67842;BME280;54642;59.126;37.876;2023-10-09T08:46:02;98146.84;;;5.23;73.91
67842;BME280;54642;59.126;37.876;2023-10-09T08:48:28;98146.72;;;5.30;73.43
67842;BME280;54642;59.126;37.876;2023-10-09T08:50:55;98138.88;;;5.41;73.51
67842;BME280;54642;59.126;37.876;2023-10-09T08:53:24;98104.75;;;5.33;73.19
67842;BME280;54642;59.126;37.876;2023-10-09T08:55:53;98128.69;;;5.37;73.08
67842;BME280;54642;59.126;37.876;2023-10-09T08:58:19;98158.53;;;5.44;73.26
67842;BME280;54642;59.126;37.876;2023-10-09T09:00:47;98128.25;;;5.07;73.23
67842;BME280;54642;59.126;37.876;2023-10-09T09:03:14;98146.28;;;5.01;73.62
67842;BME280;54642;59.126;37.876;2023-10-09T09:05:46;98166.75;;;5.07;73.69
67842;BME280;54642;59.126;37.876;2023-10-09T09:08:23;98177.94;;;5.01;73.95
67842;BME280;54642;59.126;37.876;2023-10-09T09:11:15;98177.94;;;5.01;73.89
67842;BME280;54642;59.126;37.876;2023-10-09T09:13:45;98151.63;;;4.85;73.89
67842;BME280;54642;59.126;37.876;2023-10-09T09:16:15;98190.78;;;5.03;73.58
67842;BME280;54642;59.126;37.876;2023-10-09T09:18:56;98184.75;;;5.04;73.42
67842;BME280;54642;59.126;37.876;2023-10-09T09:21:27;98194.16;;;5.06;73.71
67842;BME280;54642;59.126;37.876;2023-10-09T09:24:00;98180.53;;;5.00;73.81
67842;BME280;54642;59.126;37.876;2023-10-09T09:26:41;98198.19;;;5.24;73.52
67842;BME280;54642;59.126;37.876;2023-10-09T09:32:12;98188.81;;;5.20;73.50
67842;BME280;54642;59.126;37.876;2023-10-09T09:34:51;98195.66;;;5.21;73.16
67842;BME280;54642;59.126;37.876;2023-10-09T09:37:21;98187.91;;;5.24;73.66
67842;BME280;54642;59.126;37.876;2023-10-09T09:39:47;98170.91;;;5.15;73.02
67842;BME280;54642;59.126;37.876;2023-10-09T09:42:17;98178.59;;;5.17;73.56
67842;BME280;54642;59.126;37.876;2023-10-09T09:44:55;98199.06;;;5.23;73.20
67842;BME280;54642;59.126;37.876;2023-10-09T09:47:21;98214.47;;;5.23;73.21
67842;BME280;54642;59.126;37.876;2023-10-09T09:49:54;98200.81;;;5.18;73.33
67842;BME280;54642;59.126;37.876;2023-10-09T09:52:29;98200.13;;;5.05;73.08
67842;BME280;54642;59.126;37.876;2023-10-09T09:55:05;98220.56;;;5.13;73.32
67842;BME280;54642;59.126;37.876;2023-10-09T09:57:32;98207.69;;;5.16;73.43
67842;BME280;54642;59.126;37.876;2023-10-09T10:00:09;98215.38;;;5.21;73.19
67842;BME280;54642;59.126;37.876;2023-10-09T10:02:58;98200.91;;;5.12;73.43
67842;BME280;54642;59.126;37.876;2023-10-09T10:05:28;98200.84;;;5.15;73.55
67842;BME280;54642;59.126;37.876;2023-10-09T10:07:58;98190.72;;;5.04;73.49
67842;BME280;54642;59.126;37.876;2023-10-09T10:10:35;98226.38;;;5.27;73.57
67842;BME280;54642;59.126;37.876;2023-10-09T10:13:05;98226.44;;;5.24;73.20
67842;BME280;54642;59.126;37.876;2023-10-09T10:18:32;98227.91;;;5.42;73.02
67842;BME280;54642;59.126;37.876;2023-10-09T10:21:16;98191.19;;;5.34;72.97
67842;BME280;54642;59.126;37.876;2023-10-09T10:23:44;98221.81;;;5.51;73.09
67842;BME280;54642;59.126;37.876;2023-10-09T10:26:20;98217.69;;;5.38;72.48
67842;BME280;54642;59.126;37.876;2023-10-09T10:29:16;98231.28;;;5.46;72.82
67842;BME280;54642;59.126;37.876;2023-10-09T10:34:26;98234.75;;;5.42;72.93
67842;BME280;54642;59.126;37.876;2023-10-09T10:36:54;98226.25;;;5.38;73.07
67842;BME280;54642;59.126;37.876;2023-10-09T10:39:26;98234.53;;;5.60;72.94
67842;BME280;54642;59.126;37.876;2023-10-09T10:42:14;98234.41;;;5.66;72.91
67842;BME280;54642;59.126;37.876;2023-10-09T10:45:00;98221.00;;;5.46;72.92
67842;BME280;54642;59.126;37.876;2023-10-09T10:47:28;98251.84;;;5.46;72.68
67842;BME280;54642;59.126;37.876;2023-10-09T10:50:02;98210.38;;;5.10;73.00
67842;BME280;54642;59.126;37.876;2023-10-09T10:53:12;98263.16;;;5.31;73.18
67842;BME280;54642;59.126;37.876;2023-10-09T10:56:03;98242.72;;;5.23;73.19
67842;BME280;54642;59.126;37.876;2023-10-09T10:58:52;98251.19;;;5.31;73.07
67842;BME280;54642;59.126;37.876;2023-10-09T11:01:37;98257.16;;;5.30;73.28
67842;BME280;54642;59.126;37.876;2023-10-09T11:04:29;98253.81;;;5.25;72.99
67842;BME280;54642;59.126;37.876;2023-10-09T11:06:56;98258.09;;;5.26;73.24
67842;BME280;54642;59.126;37.876;2023-10-09T11:09:49;98279.38;;;5.34;73.44
67842;BME280;54642;59.126;37.876;2023-10-09T11:12:42;98267.31;;;5.41;73.17
67842;BME280;54642;59.126;37.876;2023-10-09T11:15:11;98243.41;;;5.34;73.15
67842;BME280;54642;59.126;37.876;2023-10-09T11:18:08;98262.91;;;5.51;72.77
67842;BME280;54642;59.126;37.876;2023-10-09T11:20:55;98265.50;;;5.48;72.36
67842;BME280;54642;59.126;37.876;2023-10-09T11:23:31;98253.72;;;5.33;72.66
67842;BME280;54642;59.126;37.876;2023-10-09T11:26:04;98268.94;;;5.47;72.38
67842;BME280;54642;59.126;37.876;2023-10-09T11:29:11;98279.88;;;5.63;72.61
67842;BME280;54642;59.126;37.876;2023-10-09T11:32:02;98291.06;;;5.60;72.08
67842;BME280;54642;59.126;37.876;2023-10-09T11:34:32;98251.25;;;5.24;72.16
67842;BME280;54642;59.126;37.876;2023-10-09T11:39:37;98259.16;;;5.10;72.34
67842;BME280;54642;59.126;37.876;2023-10-09T11:42:19;98276.13;;;5.19;72.40
67842;BME280;54642;59.126;37.876;2023-10-09T11:45:08;98299.09;;;5.31;72.49
67842;BME280;54642;59.126;37.876;2023-10-09T11:47:54;98300.00;;;5.28;72.45
67842;BME280;54642;59.126;37.876;2023-10-09T11:50:46;98282.94;;;5.24;72.41
67842;BME280;54642;59.126;37.876;2023-10-09T11:53:42;98264.09;;;5.22;72.17
67842;BME280;54642;59.126;37.876;2023-10-09T11:56:09;98291.25;;;5.43;72.19
67842;BME280;54642;59.126;37.876;2023-10-09T11:58:40;98289.50;;;5.47;72.03
67842;BME280;54642;59.126;37.876;2023-10-09T12:01:13;98311.59;;;5.60;71.97
67842;BME280;54642;59.126;37.876;2023-10-09T12:03:44;98312.44;;;5.61;72.02
67842;BME280;54642;59.126;37.876;2023-10-09T12:06:16;98276.50;;;5.58;71.73
67842;BME280;54642;59.126;37.876;2023-10-09T12:08:45;98323.13;;;5.95;71.52
67842;BME280;54642;59.126;37.876;2023-10-09T12:11:15;98312.66;;;6.10;70.95
67842;BME280;54642;59.126;37.876;2023-10-09T12:13:51;98309.63;;;6.38;70.36
67842;BME280;54642;59.126;37.876;2023-10-09T12:16:22;98305.78;;;6.64;69.56
67842;BME280;54642;59.126;37.876;2023-10-09T12:18:54;98299.06;;;6.55;69.53
67842;BME280;54642;59.126;37.876;2023-10-09T12:21:23;98315.34;;;6.57;69.69
67842;BME280;54642;59.126;37.876;2023-10-09T12:23:49;98289.09;;;6.37;69.69
67842;BME280;54642;59.126;37.876;2023-10-09T12:26:15;98320.63;;;6.48;69.72
67842;BME280;54642;59.126;37.876;2023-10-09T12:28:42;98327.53;;;6.47;69.57
67842;BME280;54642;59.126;37.876;2023-10-09T12:31:15;98305.38;;;6.37;69.12
67842;BME280;54642;59.126;37.876;2023-10-09T12:33:41;98307.78;;;6.46;69.31
67842;BME280;54642;59.126;37.876;2023-10-09T12:36:13;98331.63;;;6.56;68.72
67842;BME280;54642;59.126;37.876;2023-10-09T12:38:49;98339.50;;;6.48;68.84
67842;BME280;54642;59.126;37.876;2023-10-09T12:41:18;98346.63;;;6.31;68.92
67842;BME280;54642;59.126;37.876;2023-10-09T12:43:57;98349.34;;;6.22;68.82
67842;BME280;54642;59.126;37.876;2023-10-09T12:46:26;98317.22;;;5.88;69.07
67842;BME280;54642;59.126;37.876;2023-10-09T12:48:53;98360.69;;;6.08;69.51
67842;BME280;54642;59.126;37.876;2023-10-09T12:51:24;98370.03;;;6.13;69.60
67842;BME280;54642;59.126;37.876;2023-10-09T12:53:55;98363.31;;;6.04;69.02
67842;BME280;54642;59.126;37.876;2023-10-09T12:56:27;98347.22;;;5.88;69.14
67842;BME280;54642;59.126;37.876;2023-10-09T12:59:13;98362.50;;;5.99;69.67
67842;BME280;54642;59.126;37.876;2023-10-09T13:01:43;98348.78;;;6.03;69.86
67842;BME280;54642;59.126;37.876;2023-10-09T13:04:13;98374.88;;;6.34;69.74
67842;BME280;54642;59.126;37.876;2023-10-09T13:06:42;98371.31;;;6.43;69.06
67842;BME280;54642;59.126;37.876;2023-10-09T13:09:12;98344.22;;;6.20;68.78
67842;BME280;54642;59.126;37.876;2023-10-09T13:11:40;98380.13;;;6.28;68.91
67842;BME280;54642;59.126;37.876;2023-10-09T13:14:09;98374.25;;;6.18;68.86
67842;BME280;54642;59.126;37.876;2023-10-09T13:16:47;98383.00;;;6.06;69.12
67842;BME280;54642;59.126;37.876;2023-10-09T13:19:16;98383.13;;;5.94;69.10
67842;BME280;54642;59.126;37.876;2023-10-09T13:21:43;98381.53;;;5.85;69.40
67842;BME280;54642;59.126;37.876;2023-10-09T13:24:09;98396.13;;;5.85;69.66
67842;BME280;54642;59.126;37.876;2023-10-09T13:26:39;98399.59;;;5.79;69.91
67842;BME280;54642;59.126;37.876;2023-10-09T13:29:07;98378.34;;;5.63;69.66
67842;BME280;54642;59.126;37.876;2023-10-09T13:31:37;98384.41;;;5.59;69.59
67842;BME280;54642;59.126;37.876;2023-10-09T13:34:06;98398.97;;;5.62;69.91
67842;BME280;54642;59.126;37.876;2023-10-09T13:36:32;98404.03;;;5.66;70.07
67842;BME280;54642;59.126;37.876;2023-10-09T13:41:48;98409.97;;;5.70;70.25
67842;BME280;54642;59.126;37.876;2023-10-09T13:44:14;98410.81;;;5.72;70.17
67842;BME280;54642;59.126;37.876;2023-10-09T13:46:41;98385.34;;;5.53;70.17
67842;BME280;54642;59.126;37.876;2023-10-09T13:49:11;98409.25;;;5.62;70.11
67842;BME280;54642;59.126;37.876;2023-10-09T13:51:43;98410.06;;;5.64;70.29
67842;BME280;54642;59.126;37.876;2023-10-09T13:54:12;98427.13;;;5.71;70.39
67842;BME280;54642;59.126;37.876;2023-10-09T13:56:48;98411.84;;;5.57;70.40
67842;BME280;54642;59.126;37.876;2023-10-09T13:59:22;98422.00;;;5.69;70.55